sensor_id;sensor_type;location;lat;lon;timestamp;temperature;humidity
23323;DHT22;11833;52.554;13.554;2023-03-11T01:02:58;1.80;99.90
23323;DHT22;11833;52.554;13.554;2023-03-11T01:05:27;1.80;99.90
23323;DHT22;11833;52.554;13.554;2023-03-11T01:07:55;1.80;99.90
23323;DHT22;11833;52.554;13.554;2023-03-11T01:10:20;1.80;99.90
23323;DHT22;11833;52.554;13.554;2023-03-11T01:12:46;1.80;99.90
23323;DHT22;11833;52.554;13.554;2023-03-11T01:15:18;1.90;99.90
23323;DHT22;11833;52.554;13.554;2023-03-11T01:17:46;1.90;99.90
23323;DHT22;11833;52.554;13.554;2023-03-11T01:20:13;1.80;99.90
23323;DHT22;11833;52.554;13.554;2023-03-11T01:22:39;1.60;99.90
23323;DHT22;11833;52.554;13.554;2023-03-11T01:25:04;1.60;99.90
23323;DHT22;11833;52.554;13.554;2023-03-11T01:27:30;1.70;99.90
23323;DHT22;11833;52.554;13.554;2023-03-11T01:29:56;1.70;99.90
23323;DHT22;11833;52.554;13.554;2023-03-11T01:32:22;1.70;99.90
23323;DHT22;11833;52.554;13.554;2023-03-11T01:34:48;1.90;99.90
23323;DHT22;11833;52.554;13.554;2023-03-11T01:37:14;1.80;99.90
23323;DHT22;11833;52.554;13.554;2023-03-11T01:39:39;1.80;99.90
23323;DHT22;11833;52.554;13.554;2023-03-11T01:42:05;1.70;99.90
23323;DHT22;11833;52.554;13.554;2023-03-11T01:44:31;1.70;99.90
23323;DHT22;11833;52.554;13.554;2023-03-11T01:49:26;1.60;99.90
23323;DHT22;11833;52.554;13.554;2023-03-11T01:52:04;1.90;99.90
23323;DHT22;11833;52.554;13.554;2023-03-11T01:54:37;2.00;99.90
23323;DHT22;11833;52.554;13.554;2023-03-11T01:57:06;1.90;99.90
23323;DHT22;11833;52.554;13.554;2023-03-11T01:59:41;2.00;99.90
23323;DHT22;11833;52.554;13.554;2023-03-11T02:02:27;2.10;99.90
23323;DHT22;11833;52.554;13.554;2023-03-11T02:04:57;2.00;99.90
23323;DHT22;11833;52.554;13.554;2023-03-11T02:07:24;1.90;99.90
23323;DHT22;11833;52.554;13.554;2023-03-11T02:09:50;1.90;99.90
23323;DHT22;11833;52.554;13.554;2023-03-11T02:12:15;1.80;99.90
23323;DHT22;11833;52.554;13.554;2023-03-11T02:14:47;1.90;99.90
23323;DHT22;11833;52.554;13.554;2023-03-11T02:17:15;2.00;99.90
23323;DHT22;11833;52.554;13.554;2023-03-11T02:22:43;2.20;99.90
23323;DHT22;11833;52.554;13.554;2023-03-11T02:28:18;1.80;99.90
23323;DHT22;11833;52.554;13.554;2023-03-11T02:30:44;1.90;99.90
23323;DHT22;11833;52.554;13.554;2023-03-11T02:33:13;2.20;99.90
23323;DHT22;11833;52.554;13.554;2023-03-11T02:35:40;2.00;99.90
23323;DHT22;11833;52.554;13.554;2023-03-11T02:38:06;2.10;99.90
23323;DHT22;11833;52.554;13.554;2023-03-11T02:43:09;2.10;99.90
23323;DHT22;11833;52.554;13.554;2023-03-11T02:45:38;2.10;99.90
23323;DHT22;11833;52.554;13.554;2023-03-11T02:48:06;2.30;99.90
23323;DHT22;11833;52.554;13.554;2023-03-11T02:50:34;2.40;99.90
23323;DHT22;11833;52.554;13.554;2023-03-11T02:53:02;2.40;99.90
23323;DHT22;11833;52.554;13.554;2023-03-11T02:55:29;2.30;99.90
23323;DHT22;11833;52.554;13.554;2023-03-11T02:57:55;2.20;99.90
23323;DHT22;11833;52.554;13.554;2023-03-11T03:00:21;2.10;99.90
23323;DHT22;11833;52.554;13.554;2023-03-11T03:02:47;2.20;99.90
23323;DHT22;11833;52.554;13.554;2023-03-11T03:05:17;2.00;99.90
23323;DHT22;11833;52.554;13.554;2023-03-11T03:07:46;1.90;99.90
23323;DHT22;11833;52.554;13.554;2023-03-11T03:10:12;2.40;99.90
23323;DHT22;11833;52.554;13.554;2023-03-11T03:12:39;2.30;99.90
23323;DHT22;11833;52.554;13.554;2023-03-11T03:15:05;2.10;99.90
23323;DHT22;11833;52.554;13.554;2023-03-11T03:17:32;2.10;99.90
23323;DHT22;11833;52.554;13.554;2023-03-11T03:19:57;2.20;99.90
23323;DHT22;11833;52.554;13.554;2023-03-11T03:22:23;2.20;99.90
23323;DHT22;11833;52.554;13.554;2023-03-11T03:24:52;2.20;99.90
23323;DHT22;11833;52.554;13.554;2023-03-11T03:27:18;2.30;99.90
23323;DHT22;11833;52.554;13.554;2023-03-11T03:29:44;2.20;99.90
23323;DHT22;11833;52.554;13.554;2023-03-11T03:32:10;2.20;99.90
23323;DHT22;11833;52.554;13.554;2023-03-11T03:34:35;2.20;99.90
23323;DHT22;11833;52.554;13.554;2023-03-11T03:37:01;1.90;99.90
23323;DHT22;11833;52.554;13.554;2023-03-11T03:39:27;2.00;99.90
23323;DHT22;11833;52.554;13.554;2023-03-11T03:41:53;2.00;99.90
23323;DHT22;11833;52.554;13.554;2023-03-11T03:44:18;1.80;99.90
23323;DHT22;11833;52.554;13.554;2023-03-11T03:46:44;2.00;99.90
23323;DHT22;11833;52.554;13.554;2023-03-11T03:49:10;1.80;99.90
23323;DHT22;11833;52.554;13.554;2023-03-11T03:51:36;1.60;99.90
23323;DHT22;11833;52.554;13.554;2023-03-11T03:54:01;1.90;99.90
23323;DHT22;11833;52.554;13.554;2023-03-11T03:56:27;1.80;99.90
23323;DHT22;11833;52.554;13.554;2023-03-11T03:58:53;1.70;99.90
23323;DHT22;11833;52.554;13.554;2023-03-11T04:01:19;1.80;99.90
23323;DHT22;11833;52.554;13.554;2023-03-11T04:03:45;1.60;99.90
23323;DHT22;11833;52.554;13.554;2023-03-11T04:06:24;1.60;99.90
23323;DHT22;11833;52.554;13.554;2023-03-11T04:08:51;1.60;99.90
23323;DHT22;11833;52.554;13.554;2023-03-11T04:11:18;1.60;99.90
23323;DHT22;11833;52.554;13.554;2023-03-11T04:13:44;1.40;99.90
23323;DHT22;11833;52.554;13.554;2023-03-11T04:16:18;1.60;99.90
23323;DHT22;11833;52.554;13.554;2023-03-11T04:18:45;1.60;99.90
23323;DHT22;11833;52.554;13.554;2023-03-11T04:21:11;1.50;99.90
23323;DHT22;11833;52.554;13.554;2023-03-11T04:23:37;1.50;99.90
23323;DHT22;11833;52.554;13.554;2023-03-11T04:26:02;1.40;99.90
23323;DHT22;11833;52.554;13.554;2023-03-11T04:28:28;1.40;99.90
23323;DHT22;11833;52.554;13.554;2023-03-11T04:30:54;1.40;99.90
23323;DHT22;11833;52.554;13.554;2023-03-11T04:33:20;1.50;99.90
23323;DHT22;11833;52.554;13.554;2023-03-11T04:35:46;1.30;99.90
23323;DHT22;11833;52.554;13.554;2023-03-11T04:38:12;1.40;99.90
23323;DHT22;11833;52.554;13.554;2023-03-11T04:40:38;1.40;99.90
23323;DHT22;11833;52.554;13.554;2023-03-11T04:43:04;1.30;99.90
23323;DHT22;11833;52.554;13.554;2023-03-11T04:45:30;1.30;99.90
23323;DHT22;11833;52.554;13.554;2023-03-11T04:47:56;1.60;99.90
23323;DHT22;11833;52.554;13.554;2023-03-11T04:50:22;1.40;99.90
23323;DHT22;11833;52.554;13.554;2023-03-11T04:52:48;1.40;99.90
23323;DHT22;11833;52.554;13.554;2023-03-11T04:55:15;1.50;99.90
23323;DHT22;11833;52.554;13.554;2023-03-11T04:57:41;1.30;99.90
23323;DHT22;11833;52.554;13.554;2023-03-11T05:00:09;1.30;99.90
23323;DHT22;11833;52.554;13.554;2023-03-11T05:02:37;1.20;99.90
23323;DHT22;11833;52.554;13.554;2023-03-11T05:05:05;1.50;99.90
23323;DHT22;11833;52.554;13.554;2023-03-11T05:07:31;1.40;99.90
23323;DHT22;11833;52.554;13.554;2023-03-11T05:09:57;1.50;99.90
23323;DHT22;11833;52.554;13.554;2023-03-11T05:12:22;1.50;99.90
23323;DHT22;11833;52.554;13.554;2023-03-11T05:14:48;1.50;99.90
23323;DHT22;11833;52.554;13.554;2023-03-11T05:17:14;1.40;99.90
23323;DHT22;11833;52.554;13.554;2023-03-11T05:19:43;1.50;99.90
23323;DHT22;11833;52.554;13.554;2023-03-11T05:22:08;1.50;99.90
23323;DHT22;11833;52.554;13.554;2023-03-11T05:24:34;1.50;99.90
23323;DHT22;11833;52.554;13.554;2023-03-11T05:27:00;1.40;99.90
23323;DHT22;11833;52.554;13.554;2023-03-11T05:29:27;1.40;99.90
23323;DHT22;11833;52.554;13.554;2023-03-11T05:31:53;1.40;99.90
23323;DHT22;11833;52.554;13.554;2023-03-11T05:34:19;1.30;99.90
23323;DHT22;11833;52.554;13.554;2023-03-11T05:36:45;1.40;99.90
23323;DHT22;11833;52.554;13.554;2023-03-11T05:39:11;1.70;99.90
23323;DHT22;11833;52.554;13.554;2023-03-11T05:41:37;1.70;99.90
23323;DHT22;11833;52.554;13.554;2023-03-11T05:44:03;1.70;99.90
23323;DHT22;11833;52.554;13.554;2023-03-11T05:46:29;1.60;99.90
23323;DHT22;11833;52.554;13.554;2023-03-11T05:48:55;1.50;99.90
23323;DHT22;11833;52.554;13.554;2023-03-11T05:51:20;1.50;99.90
23323;DHT22;11833;52.554;13.554;2023-03-11T05:53:47;1.60;99.90
23323;DHT22;11833;52.554;13.554;2023-03-11T05:56:14;1.40;99.90
23323;DHT22;11833;52.554;13.554;2023-03-11T05:58:41;1.30;99.90
23323;DHT22;11833;52.554;13.554;2023-03-11T06:01:12;1.40;99.90
23323;DHT22;11833;52.554;13.554;2023-03-11T06:03:39;1.50;99.90
23323;DHT22;11833;52.554;13.554;2023-03-11T06:06:08;1.60;99.90
23323;DHT22;11833;52.554;13.554;2023-03-11T06:08:35;1.50;99.90
23323;DHT22;11833;52.554;13.554;2023-03-11T06:13:27;1.40;99.90
23323;DHT22;11833;52.554;13.554;2023-03-11T06:15:53;1.30;99.90
23323;DHT22;11833;52.554;13.554;2023-03-11T06:18:19;1.50;99.90
23323;DHT22;11833;52.554;13.554;2023-03-11T06:20:45;1.50;99.90
23323;DHT22;11833;52.554;13.554;2023-03-11T06:23:10;1.30;99.90
23323;DHT22;11833;52.554;13.554;2023-03-11T06:25:36;1.60;99.90
23323;DHT22;11833;52.554;13.554;2023-03-11T06:28:02;1.50;99.90
23323;DHT22;11833;52.554;13.554;2023-03-11T06:30:28;1.40;99.90
23323;DHT22;11833;52.554;13.554;2023-03-11T06:32:54;1.40;99.90
23323;DHT22;11833;52.554;13.554;2023-03-11T06:35:20;1.50;99.90
23323;DHT22;11833;52.554;13.554;2023-03-11T06:37:46;1.40;99.90
23323;DHT22;11833;52.554;13.554;2023-03-11T06:40:12;1.40;99.90
23323;DHT22;11833;52.554;13.554;2023-03-11T06:42:38;1.40;99.90
23323;DHT22;11833;52.554;13.554;2023-03-11T06:45:05;1.30;99.90
23323;DHT22;11833;52.554;13.554;2023-03-11T06:47:31;1.30;99.90
23323;DHT22;11833;52.554;13.554;2023-03-11T06:49:57;1.40;99.90
23323;DHT22;11833;52.554;13.554;2023-03-11T06:52:22;1.30;99.90
23323;DHT22;11833;52.554;13.554;2023-03-11T06:54:48;1.30;99.90
23323;DHT22;11833;52.554;13.554;2023-03-11T06:57:15;1.30;99.90
23323;DHT22;11833;52.554;13.554;2023-03-11T06:59:41;1.10;99.90
23323;DHT22;11833;52.554;13.554;2023-03-11T07:02:09;1.20;99.90
23323;DHT22;11833;52.554;13.554;2023-03-11T07:04:37;1.20;99.90
23323;DHT22;11833;52.554;13.554;2023-03-11T07:07:02;1.20;99.90
23323;DHT22;11833;52.554;13.554;2023-03-11T07:09:28;1.30;99.90
23323;DHT22;11833;52.554;13.554;2023-03-11T07:11:54;1.30;99.90
23323;DHT22;11833;52.554;13.554;2023-03-11T07:14:20;1.20;99.90
23323;DHT22;11833;52.554;13.554;2023-03-11T07:16:46;1.00;99.90
23323;DHT22;11833;52.554;13.554;2023-03-11T07:19:12;1.10;99.90
23323;DHT22;11833;52.554;13.554;2023-03-11T07:21:39;1.30;99.90
23323;DHT22;11833;52.554;13.554;2023-03-11T07:24:05;1.30;99.90
23323;DHT22;11833;52.554;13.554;2023-03-11T07:26:33;1.20;99.90
23323;DHT22;11833;52.554;13.554;2023-03-11T07:29:00;1.20;99.90
23323;DHT22;11833;52.554;13.554;2023-03-11T07:31:32;1.50;99.90
23323;DHT22;11833;52.554;13.554;2023-03-11T07:34:01;1.60;99.90
23323;DHT22;11833;52.554;13.554;2023-03-11T07:36:29;1.60;99.90
23323;DHT22;11833;52.554;13.554;2023-03-11T07:38:56;1.60;99.90
23323;DHT22;11833;52.554;13.554;2023-03-11T07:41:24;1.60;99.90
23323;DHT22;11833;52.554;13.554;2023-03-11T07:43:54;1.60;99.90
23323;DHT22;11833;52.554;13.554;2023-03-11T07:46:21;1.60;99.90
23323;DHT22;11833;52.554;13.554;2023-03-11T07:48:49;1.80;99.90
23323;DHT22;11833;52.554;13.554;2023-03-11T07:51:21;1.80;99.90
23323;DHT22;11833;52.554;13.554;2023-03-11T07:53:52;1.60;99.90
23323;DHT22;11833;52.554;13.554;2023-03-11T07:56:20;1.70;99.90
23323;DHT22;11833;52.554;13.554;2023-03-11T07:58:48;1.80;99.90
23323;DHT22;11833;52.554;13.554;2023-03-11T08:01:17;2.00;99.90
23323;DHT22;11833;52.554;13.554;2023-03-11T08:03:46;2.10;99.90
23323;DHT22;11833;52.554;13.554;2023-03-11T08:08:45;2.10;99.90
23323;DHT22;11833;52.554;13.554;2023-03-11T08:11:12;2.20;99.90
23323;DHT22;11833;52.554;13.554;2023-03-11T08:13:43;2.20;99.90
23323;DHT22;11833;52.554;13.554;2023-03-11T08:16:12;2.80;99.90
23323;DHT22;11833;52.554;13.554;2023-03-11T08:18:39;2.50;99.90
23323;DHT22;11833;52.554;13.554;2023-03-11T08:21:07;2.20;99.90
23323;DHT22;11833;52.554;13.554;2023-03-11T08:23:34;2.10;99.90
23323;DHT22;11833;52.554;13.554;2023-03-11T08:26:08;2.20;99.90
23323;DHT22;11833;52.554;13.554;2023-03-11T08:28:36;2.20;99.90
23323;DHT22;11833;52.554;13.554;2023-03-11T08:31:02;2.10;99.90
23323;DHT22;11833;52.554;13.554;2023-03-11T08:33:36;2.30;99.90
23323;DHT22;11833;52.554;13.554;2023-03-11T08:36:02;2.10;99.90
23323;DHT22;11833;52.554;13.554;2023-03-11T08:38:28;2.20;99.90
23323;DHT22;11833;52.554;13.554;2023-03-11T08:40:54;2.60;99.90
23323;DHT22;11833;52.554;13.554;2023-03-11T08:43:19;2.50;99.90
23323;DHT22;11833;52.554;13.554;2023-03-11T08:45:45;2.80;99.90
23323;DHT22;11833;52.554;13.554;2023-03-11T08:48:11;2.60;99.90
23323;DHT22;11833;52.554;13.554;2023-03-11T08:50:42;3.60;99.90
23323;DHT22;11833;52.554;13.554;2023-03-11T08:53:08;3.40;99.90
23323;DHT22;11833;52.554;13.554;2023-03-11T08:55:34;3.20;99.90
23323;DHT22;11833;52.554;13.554;2023-03-11T08:58:00;3.40;99.90
23323;DHT22;11833;52.554;13.554;2023-03-11T09:00:26;3.10;99.90
23323;DHT22;11833;52.554;13.554;2023-03-11T09:02:52;3.10;99.90
23323;DHT22;11833;52.554;13.554;2023-03-11T09:05:17;3.20;99.90
23323;DHT22;11833;52.554;13.554;2023-03-11T09:07:43;2.80;99.90
23323;DHT22;11833;52.554;13.554;2023-03-11T09:10:12;2.90;99.90
23323;DHT22;11833;52.554;13.554;2023-03-11T09:12:39;2.70;99.90
23323;DHT22;11833;52.554;13.554;2023-03-11T09:15:05;2.60;99.90
23323;DHT22;11833;52.554;13.554;2023-03-11T09:17:31;2.80;99.90
23323;DHT22;11833;52.554;13.554;2023-03-11T09:19:57;2.50;99.90
23323;DHT22;11833;52.554;13.554;2023-03-11T09:22:23;2.70;99.90
23323;DHT22;11833;52.554;13.554;2023-03-11T09:24:49;3.20;99.90
23323;DHT22;11833;52.554;13.554;2023-03-11T09:27:14;2.90;99.90
23323;DHT22;11833;52.554;13.554;2023-03-11T09:29:41;3.40;99.90
23323;DHT22;11833;52.554;13.554;2023-03-11T09:32:08;3.90;99.90
23323;DHT22;11833;52.554;13.554;2023-03-11T09:34:36;4.20;99.90
23323;DHT22;11833;52.554;13.554;2023-03-11T09:37:02;4.70;99.90
23323;DHT22;11833;52.554;13.554;2023-03-11T09:39:28;4.10;99.90
23323;DHT22;11833;52.554;13.554;2023-03-11T09:42:00;3.70;99.90
23323;DHT22;11833;52.554;13.554;2023-03-11T09:50:30;3.90;99.90
23323;DHT22;11833;52.554;13.554;2023-03-11T09:55:45;4.00;99.90
23323;DHT22;11833;52.554;13.554;2023-03-11T09:58:25;3.80;99.90
23323;DHT22;11833;52.554;13.554;2023-03-11T10:01:28;3.10;99.90
23323;DHT22;11833;52.554;13.554;2023-03-11T10:04:11;2.90;99.90
23323;DHT22;11833;52.554;13.554;2023-03-11T10:06:40;2.80;99.90
23323;DHT22;11833;52.554;13.554;2023-03-11T10:12:13;2.70;99.90
23323;DHT22;11833;52.554;13.554;2023-03-11T10:20:21;3.80;99.90
23323;DHT22;11833;52.554;13.554;2023-03-11T10:23:09;3.90;99.90
23323;DHT22;11833;52.554;13.554;2023-03-11T10:26:18;3.50;99.90
23323;DHT22;11833;52.554;13.554;2023-03-11T10:29:36;3.30;99.90
23323;DHT22;11833;52.554;13.554;2023-03-11T10:32:16;3.60;99.90
23323;DHT22;11833;52.554;13.554;2023-03-11T10:34:56;3.50;99.90
23323;DHT22;11833;52.554;13.554;2023-03-11T10:37:34;4.10;99.90
23323;DHT22;11833;52.554;13.554;2023-03-11T10:40:28;4.50;99.90
23323;DHT22;11833;52.554;13.554;2023-03-11T10:42:58;4.10;99.90
23323;DHT22;11833;52.554;13.554;2023-03-11T10:45:28;4.20;99.90
23323;DHT22;11833;52.554;13.554;2023-03-11T10:48:14;3.40;99.90
23323;DHT22;11833;52.554;13.554;2023-03-11T10:50:46;3.20;99.90
23323;DHT22;11833;52.554;13.554;2023-03-11T10:53:17;3.00;99.90
23323;DHT22;11833;52.554;13.554;2023-03-11T10:55:55;2.90;99.90
23323;DHT22;11833;52.554;13.554;2023-03-11T10:58:27;3.20;99.90
23323;DHT22;11833;52.554;13.554;2023-03-11T11:01:04;2.90;99.90
23323;DHT22;11833;52.554;13.554;2023-03-11T11:03:41;3.00;99.90
23323;DHT22;11833;52.554;13.554;2023-03-11T11:08:47;2.90;99.90
23323;DHT22;11833;52.554;13.554;2023-03-11T11:11:22;2.70;99.90
23323;DHT22;11833;52.554;13.554;2023-03-11T11:13:56;3.20;99.90
23323;DHT22;11833;52.554;13.554;2023-03-11T11:16:23;3.00;99.90
23323;DHT22;11833;52.554;13.554;2023-03-11T11:18:53;3.00;99.90
23323;DHT22;11833;52.554;13.554;2023-03-11T11:21:31;3.10;99.90
23323;DHT22;11833;52.554;13.554;2023-03-11T11:24:25;2.70;99.90
23323;DHT22;11833;52.554;13.554;2023-03-11T11:30:14;4.10;99.90
23323;DHT22;11833;52.554;13.554;2023-03-11T11:32:42;5.20;99.90
23323;DHT22;11833;52.554;13.554;2023-03-11T11:35:15;5.80;99.90
23323;DHT22;11833;52.554;13.554;2023-03-11T11:37:45;5.80;99.90
23323;DHT22;11833;52.554;13.554;2023-03-11T11:51:34;4.40;99.90
23323;DHT22;11833;52.554;13.554;2023-03-11T11:54:17;4.50;99.90
23323;DHT22;11833;52.554;13.554;2023-03-11T11:57:01;4.30;99.90
23323;DHT22;11833;52.554;13.554;2023-03-11T11:59:35;3.80;99.90
23323;DHT22;11833;52.554;13.554;2023-03-11T12:08:02;4.50;99.90
23323;DHT22;11833;52.554;13.554;2023-03-11T12:10:33;4.40;99.90
23323;DHT22;11833;52.554;13.554;2023-03-11T12:16:49;4.50;99.90
23323;DHT22;11833;52.554;13.554;2023-03-11T12:19:21;4.20;99.90
23323;DHT22;11833;52.554;13.554;2023-03-11T12:25:15;5.10;99.90
23323;DHT22;11833;52.554;13.554;2023-03-11T12:28:15;5.40;99.90
23323;DHT22;11833;52.554;13.554;2023-03-11T12:30:46;6.10;99.90
23323;DHT22;11833;52.554;13.554;2023-03-11T12:33:16;6.40;99.90
23323;DHT22;11833;52.554;13.554;2023-03-11T12:35:55;6.50;99.90
23323;DHT22;11833;52.554;13.554;2023-03-11T12:38:40;6.50;96.90
23323;DHT22;11833;52.554;13.554;2023-03-11T12:46:15;4.40;99.90
23323;DHT22;11833;52.554;13.554;2023-03-11T12:48:46;4.20;99.90
23323;DHT22;11833;52.554;13.554;2023-03-11T12:54:25;3.60;99.90
23323;DHT22;11833;52.554;13.554;2023-03-11T12:57:04;3.80;99.90
23323;DHT22;11833;52.554;13.554;2023-03-11T13:08:44;3.90;99.90
23323;DHT22;11833;52.554;13.554;2023-03-11T13:11:43;4.30;99.90
23323;DHT22;11833;52.554;13.554;2023-03-11T13:16:39;6.00;99.90
23323;DHT22;11833;52.554;13.554;2023-03-11T13:22:01;6.20;96.70
23323;DHT22;11833;52.554;13.554;2023-03-11T13:35:20;5.80;96.00
23323;DHT22;11833;52.554;13.554;2023-03-11T13:41:15;4.90;97.70
23323;DHT22;11833;52.554;13.554;2023-03-11T13:43:46;5.80;97.80
23323;DHT22;11833;52.554;13.554;2023-03-11T13:46:34;6.00;94.30
23323;DHT22;11833;52.554;13.554;2023-03-11T13:49:13;6.90;95.10
23323;DHT22;11833;52.554;13.554;2023-03-11T13:51:49;6.80;92.40
23323;DHT22;11833;52.554;13.554;2023-03-11T13:56:56;6.70;92.30
23323;DHT22;11833;52.554;13.554;2023-03-11T14:04:32;5.80;91.10
23323;DHT22;11833;52.554;13.554;2023-03-11T14:07:17;4.80;91.80
23323;DHT22;11833;52.554;13.554;2023-03-11T14:09:45;4.60;93.50
23323;DHT22;11833;52.554;13.554;2023-03-11T14:12:12;4.10;94.30
23323;DHT22;11833;52.554;13.554;2023-03-11T14:14:59;4.80;94.80
23323;DHT22;11833;52.554;13.554;2023-03-11T14:17:29;5.90;92.30
23323;DHT22;11833;52.554;13.554;2023-03-11T14:20:12;6.40;87.40
23323;DHT22;11833;52.554;13.554;2023-03-11T14:22:49;6.60;86.50
23323;DHT22;11833;52.554;13.554;2023-03-11T14:25:25;7.00;86.40
23323;DHT22;11833;52.554;13.554;2023-03-11T14:27:57;7.60;89.50
23323;DHT22;11833;52.554;13.554;2023-03-11T14:30:31;7.20;84.40
23323;DHT22;11833;52.554;13.554;2023-03-11T14:33:03;7.10;89.20
23323;DHT22;11833;52.554;13.554;2023-03-11T14:35:32;7.60;82.20
23323;DHT22;11833;52.554;13.554;2023-03-11T14:37:58;8.10;81.90
23323;DHT22;11833;52.554;13.554;2023-03-11T14:40:30;9.00;81.50
23323;DHT22;11833;52.554;13.554;2023-03-11T14:43:02;8.20;76.00
23323;DHT22;11833;52.554;13.554;2023-03-11T14:45:34;7.80;79.60
23323;DHT22;11833;52.554;13.554;2023-03-11T14:50:34;8.60;76.80
23323;DHT22;11833;52.554;13.554;2023-03-11T14:53:05;9.10;76.70
23323;DHT22;11833;52.554;13.554;2023-03-11T14:56:18;9.40;77.10
23323;DHT22;11833;52.554;13.554;2023-03-11T14:59:09;9.40;75.30
23323;DHT22;11833;52.554;13.554;2023-03-11T15:01:40;9.20;76.40
23323;DHT22;11833;52.554;13.554;2023-03-11T15:07:03;8.80;82.70
23323;DHT22;11833;52.554;13.554;2023-03-11T15:09:30;9.20;83.60
23323;DHT22;11833;52.554;13.554;2023-03-11T15:12:01;9.60;75.10
23323;DHT22;11833;52.554;13.554;2023-03-11T15:14:31;9.30;77.50
23323;DHT22;11833;52.554;13.554;2023-03-11T15:19:42;10.40;71.90
23323;DHT22;11833;52.554;13.554;2023-03-11T15:22:28;11.50;76.50
23323;DHT22;11833;52.554;13.554;2023-03-11T15:24:58;10.20;68.60
23323;DHT22;11833;52.554;13.554;2023-03-11T15:27:33;10.10;66.00
23323;DHT22;11833;52.554;13.554;2023-03-11T15:30:13;9.70;64.90
23323;DHT22;11833;52.554;13.554;2023-03-11T15:32:44;8.40;67.00
23323;DHT22;11833;52.554;13.554;2023-03-11T15:35:22;8.60;72.30
23323;DHT22;11833;52.554;13.554;2023-03-11T15:41:00;7.60;70.20
23323;DHT22;11833;52.554;13.554;2023-03-11T15:43:30;7.40;75.00
23323;DHT22;11833;52.554;13.554;2023-03-11T15:45:59;8.20;81.00
23323;DHT22;11833;52.554;13.554;2023-03-11T15:48:27;7.20;72.80
23323;DHT22;11833;52.554;13.554;2023-03-11T15:50:56;6.70;78.60
23323;DHT22;11833;52.554;13.554;2023-03-11T15:53:25;6.80;78.50
23323;DHT22;11833;52.554;13.554;2023-03-11T15:55:53;7.60;81.50
23323;DHT22;11833;52.554;13.554;2023-03-11T15:58:20;8.20;81.70
23323;DHT22;11833;52.554;13.554;2023-03-11T16:00:51;8.80;69.40
23323;DHT22;11833;52.554;13.554;2023-03-11T16:03:21;9.20;67.90
23323;DHT22;11833;52.554;13.554;2023-03-11T16:05:47;8.60;68.40
23323;DHT22;11833;52.554;13.554;2023-03-11T16:08:13;8.50;69.30
23323;DHT22;11833;52.554;13.554;2023-03-11T16:10:39;8.70;67.50
23323;DHT22;11833;52.554;13.554;2023-03-11T16:13:05;8.90;69.20
23323;DHT22;11833;52.554;13.554;2023-03-11T16:15:35;9.70;70.70
23323;DHT22;11833;52.554;13.554;2023-03-11T16:18:04;8.70;66.70
23323;DHT22;11833;52.554;13.554;2023-03-11T16:20:41;8.40;68.60
23323;DHT22;11833;52.554;13.554;2023-03-11T16:23:30;8.60;68.70
23323;DHT22;11833;52.554;13.554;2023-03-11T16:26:00;7.80;72.30
23323;DHT22;11833;52.554;13.554;2023-03-11T16:28:28;8.20;69.60
23323;DHT22;11833;52.554;13.554;2023-03-11T16:30:54;7.70;68.70
23323;DHT22;11833;52.554;13.554;2023-03-11T16:33:20;7.50;70.80
23323;DHT22;11833;52.554;13.554;2023-03-11T16:35:46;7.30;71.70
23323;DHT22;11833;52.554;13.554;2023-03-11T16:38:13;7.60;69.90
23323;DHT22;11833;52.554;13.554;2023-03-11T16:40:39;6.80;72.10
23323;DHT22;11833;52.554;13.554;2023-03-11T16:43:10;6.30;72.40
23323;DHT22;11833;52.554;13.554;2023-03-11T16:45:37;5.70;73.70
23323;DHT22;11833;52.554;13.554;2023-03-11T16:48:03;5.50;76.80
23323;DHT22;11833;52.554;13.554;2023-03-11T16:50:30;5.40;77.90
23323;DHT22;11833;52.554;13.554;2023-03-11T16:52:56;5.10;79.10
23323;DHT22;11833;52.554;13.554;2023-03-11T16:55:24;5.10;78.70
23323;DHT22;11833;52.554;13.554;2023-03-11T16:57:51;5.00;81.50
23323;DHT22;11833;52.554;13.554;2023-03-11T17:00:19;4.60;80.70
23323;DHT22;11833;52.554;13.554;2023-03-11T17:02:45;4.20;82.60
23323;DHT22;11833;52.554;13.554;2023-03-11T17:05:11;3.90;84.20
23323;DHT22;11833;52.554;13.554;2023-03-11T17:07:40;3.80;86.50
23323;DHT22;11833;52.554;13.554;2023-03-11T17:10:08;3.60;86.30
23323;DHT22;11833;52.554;13.554;2023-03-11T17:12:35;3.50;87.90
23323;DHT22;11833;52.554;13.554;2023-03-11T17:15:02;3.50;88.50
23323;DHT22;11833;52.554;13.554;2023-03-11T17:17:35;3.40;88.80
23323;DHT22;11833;52.554;13.554;2023-03-11T17:20:00;3.40;90.90
23323;DHT22;11833;52.554;13.554;2023-03-11T17:22:26;3.40;90.30
23323;DHT22;11833;52.554;13.554;2023-03-11T17:24:52;3.50;91.20
23323;DHT22;11833;52.554;13.554;2023-03-11T17:27:21;3.30;90.30
23323;DHT22;11833;52.554;13.554;2023-03-11T17:29:47;3.20;91.00
23323;DHT22;11833;52.554;13.554;2023-03-11T17:32:12;3.20;92.30
23323;DHT22;11833;52.554;13.554;2023-03-11T17:34:41;3.20;91.70
23323;DHT22;11833;52.554;13.554;2023-03-11T17:37:08;3.20;91.90
23323;DHT22;11833;52.554;13.554;2023-03-11T17:39:37;3.10;92.60
23323;DHT22;11833;52.554;13.554;2023-03-11T17:42:05;3.10;92.70
23323;DHT22;11833;52.554;13.554;2023-03-11T17:44:31;3.00;92.60
23323;DHT22;11833;52.554;13.554;2023-03-11T17:46:57;3.00;92.90
23323;DHT22;11833;52.554;13.554;2023-03-11T17:49:30;3.10;94.20
23323;DHT22;11833;52.554;13.554;2023-03-11T17:51:56;3.10;93.50
23323;DHT22;11833;52.554;13.554;2023-03-11T17:54:24;3.10;93.50
23323;DHT22;11833;52.554;13.554;2023-03-11T17:56:50;2.90;94.20
23323;DHT22;11833;52.554;13.554;2023-03-11T17:59:22;3.10;94.40
23323;DHT22;11833;52.554;13.554;2023-03-11T18:01:48;3.00;94.50
23323;DHT22;11833;52.554;13.554;2023-03-11T18:04:13;2.80;94.90
23323;DHT22;11833;52.554;13.554;2023-03-11T18:06:39;2.90;95.40
23323;DHT22;11833;52.554;13.554;2023-03-11T18:09:07;2.70;95.80
23323;DHT22;11833;52.554;13.554;2023-03-11T18:11:33;2.60;96.70
23323;DHT22;11833;52.554;13.554;2023-03-11T18:13:59;2.80;96.50
23323;DHT22;11833;52.554;13.554;2023-03-11T18:16:26;2.90;97.00
23323;DHT22;11833;52.554;13.554;2023-03-11T18:18:55;2.80;96.90
23323;DHT22;11833;52.554;13.554;2023-03-11T18:21:23;2.90;97.80
23323;DHT22;11833;52.554;13.554;2023-03-11T18:23:58;2.90;97.00
23323;DHT22;11833;52.554;13.554;2023-03-11T18:26:26;3.10;97.20
23323;DHT22;11833;52.554;13.554;2023-03-11T18:28:54;2.90;97.70
23323;DHT22;11833;52.554;13.554;2023-03-11T18:31:22;2.70;98.60
23323;DHT22;11833;52.554;13.554;2023-03-11T18:33:54;2.70;99.00
23323;DHT22;11833;52.554;13.554;2023-03-11T18:36:30;2.80;98.90
23323;DHT22;11833;52.554;13.554;2023-03-11T18:38:58;3.00;98.30
23323;DHT22;11833;52.554;13.554;2023-03-11T18:41:26;2.70;98.90
23323;DHT22;11833;52.554;13.554;2023-03-11T18:43:53;2.80;99.70
23323;DHT22;11833;52.554;13.554;2023-03-11T18:46:24;3.00;98.80